Fisterra (A Coruña), Galicia

latitud = 42° 55' 29''N | longitud = 009° 17' 29''W
230 metros sobre el nivel del mar | datos mensuales

Fecha, hora, temperatura, viento dirección y velocidad, humedad y presión.

  • 22-11-2017 09:00:00 | 13.30°C | Sur |46.00 km/h | 90.00% | 978.40 hPa
  • 22-11-2017 08:00:00 | 13.00°C | Sur |50.00 km/h | 91.00% | 978.30 hPa
  • 22-11-2017 07:00:00 | 13.30°C | Sur |47.00 km/h | 93.00% | 979.40 hPa
  • 22-11-2017 06:00:00 | 13.20°C | Sur |44.00 km/h | 91.00% | 980.80 hPa
  • 22-11-2017 05:00:00 | 13.50°C | Sur |40.00 km/h | 92.00% | 981.90 hPa
  • 22-11-2017 04:00:00 | 13.60°C | Sur |46.00 km/h | 93.00% | 982.60 hPa
  • 22-11-2017 03:00:00 | 13.60°C | Sur |44.00 km/h | 93.00% | 983.00 hPa
  • 22-11-2017 02:00:00 | 13.50°C | Sur |41.00 km/h | 92.00% | 983.30 hPa
  • 22-11-2017 01:00:00 | 13.40°C | Sur |42.00 km/h | 92.00% | 984.40 hPa
  • 22-11-2017 00:00:00 | 13.10°C | Sur |42.00 km/h | 92.00% | 984.90 hPa
  • 21-11-2017 23:00:00 | 13.20°C | Sur |40.00 km/h | 92.00% | 985.50 hPa
  • 21-11-2017 22:00:00 | 13.50°C | Sur |37.00 km/h | 92.00% | 986.10 hPa
  • 21-11-2017 21:00:00 | 13.40°C | Sur |36.00 km/h | 92.00% | 986.80 hPa
  • 21-11-2017 20:00:00 | 13.20°C | Sur |35.00 km/h | 90.00% | 987.00 hPa
  • 21-11-2017 19:00:00 | 13.00°C | Sur |35.00 km/h | 88.00% | 987.10 hPa
  • 21-11-2017 18:00:00 | 13.50°C | Sur |29.00 km/h | 83.00% | 987.70 hPa
  • 21-11-2017 17:00:00 | 14.50°C | Sur |24.00 km/h | 73.00% | 988.00 hPa
  • 21-11-2017 16:00:00 | 15.40°C | Sur |29.00 km/h | 61.00% | 988.30 hPa
  • 21-11-2017 15:00:00 | 17.00°C | Sur |35.00 km/h | 43.00% | 988.60 hPa
  • 21-11-2017 14:00:00 | 17.50°C | Sur |33.00 km/h | 36.00% | 989.20 hPa
  • 21-11-2017 13:00:00 | 16.90°C | Sur |31.00 km/h | 39.00% | 990.10 hPa
  • 21-11-2017 12:00:00 | 16.00°C | Sur |33.00 km/h | 43.00% | 990.80 hPa
  • 21-11-2017 11:00:00 | 14.90°C | Sur |32.00 km/h | 48.00% | 991.30 hPa
  • 21-11-2017 10:00:00 | 14.50°C | Sur |31.00 km/h | 50.00% | 991.50 hPa